Time;durP1;ratioP1;P1;durP2;ratioP2;P2;SDS_P1;SDS_P2;PMS_P1;PMS_P2;Temp;Humidity;BMP_temperature;BMP_pressure;BME280_temperature;BME280_humidity;BME280_pressure;Samples;Min_cycle;Max_cycle;Signal;HPM_P1;HPM_P2
2023/12/11 00:00:46;;;;;;;;;;;;;;;15.12;55.39;99085.75;5000725;28;7381;-81
2023/12/11 00:03:12;;;;;;;;;;;;;;;15.14;55.42;99081.47;4961384;28;6966;-80
2023/12/11 00:05:41;;;;;;;;;;;;;;;15.16;55.14;99073.75;5012096;28;7106;-80
2023/12/11 00:08:06;;;;;;;;;;;;;;;15.18;55.38;99076.34;5010168;28;7046;-81
2023/12/11 00:10:32;;;;;;;;;;;;;;;15.18;55.67;99077.19;5012427;28;6963;-77
2023/12/11 00:12:58;;;;;;;;;;;;;;;15.17;54.94;99085.78;4978026;28;9175;-81
2023/12/11 00:15:23;;;;;;;;;;;;;;;15.19;55.26;99088.41;4983567;28;6796;-80
2023/12/11 00:17:49;;;;;;;;;;;;;;;15.20;55.08;99079.81;5006815;28;7040;-80
2023/12/11 00:20:14;;;;;;;;;;;;;;;15.20;54.71;99080.66;5011167;28;6791;-75
2023/12/11 00:22:39;;;;;;;;;;;;;;;15.19;55.11;99078.09;5003141;28;7292;-75
2023/12/11 00:25:06;;;;;;;;;;;;;;;15.19;54.58;99076.34;4975322;28;6792;-75
2023/12/11 00:27:31;;;;;;;;;;;;;;;15.17;54.97;99074.63;5010454;28;6792;-75
2023/12/11 00:29:58;;;;;;;;;;;;;;;15.16;55.40;99078.91;4990720;28;6952;-75
2023/12/11 00:32:23;;;;;;;;;;;;;;;15.14;55.01;99086.63;5010903;28;6976;-75
2023/12/11 00:34:49;;;;;;;;;;;;;;;15.14;54.87;99076.31;5011384;28;6796;-75
2023/12/11 00:37:14;;;;;;;;;;;;;;;15.16;55.21;99080.63;5007214;28;7206;-75
2023/12/11 00:39:40;;;;;;;;;;;;;;;15.17;55.08;99079.78;5004891;28;6799;-75
2023/12/11 00:42:05;;;;;;;;;;;;;;;15.17;54.79;99084.94;5008285;28;7042;-75
2023/12/11 00:44:31;;;;;;;;;;;;;;;15.19;55.01;99075.50;5012076;28;6977;-75
2023/12/11 00:46:56;;;;;;;;;;;;;;;15.19;54.69;99090.97;5012970;28;6788;-75
2023/12/11 00:49:22;;;;;;;;;;;;;;;15.21;54.71;99089.28;4993015;28;7293;-75
2023/12/11 00:51:52;;;;;;;;;;;;;;;15.21;55.06;99097.00;4975716;28;7018;-75
2023/12/11 00:54:18;;;;;;;;;;;;;;;15.22;54.91;99094.47;5010158;28;7036;-75
2023/12/11 00:56:43;;;;;;;;;;;;;;;15.23;54.88;99103.03;5008854;28;7032;-75
2023/12/11 00:59:09;;;;;;;;;;;;;;;15.24;54.85;99112.50;4942215;28;7191;-75
2023/12/11 01:01:34;;;;;;;;;;;;;;;15.25;55.19;99109.06;4973932;28;6791;-75
2023/12/11 01:04:00;;;;;;;;;;;;;;;15.25;55.21;99101.34;5009055;28;6899;-75
2023/12/11 01:06:25;;;;;;;;;;;;;;;15.24;54.82;99092.75;5008653;28;6952;-75
2023/12/11 01:08:50;;;;;;;;;;;;;;;15.24;54.68;99102.19;4991304;28;6943;-75
2023/12/11 01:11:16;;;;;;;;;;;;;;;15.21;55.16;99085.00;5008744;28;6983;-75
2023/12/11 01:13:41;;;;;;;;;;;;;;;15.14;54.69;99080.63;5012335;28;7829;-75
2023/12/11 01:16:07;;;;;;;;;;;;;;;15.10;54.62;99086.59;4970829;28;6962;-75
2023/12/11 01:18:32;;;;;;;;;;;;;;;15.07;55.36;99081.41;4987898;28;7404;-75
2023/12/11 01:20:59;;;;;;;;;;;;;;;15.06;54.73;99087.44;5005155;28;7197;-75
2023/12/11 01:23:25;;;;;;;;;;;;;;;15.07;55.02;99081.41;5003697;28;7362;-75
2023/12/11 01:25:50;;;;;;;;;;;;;;;15.10;55.34;99082.31;5004036;28;6844;-75
2023/12/11 01:28:16;;;;;;;;;;;;;;;15.12;55.04;99077.16;4985785;28;7040;-75
2023/12/11 01:30:41;;;;;;;;;;;;;;;15.14;55.25;99071.16;5014190;28;7009;-83
2023/12/11 01:33:07;;;;;;;;;;;;;;;15.18;54.60;99074.63;5020515;28;7317;-79
2023/12/11 01:35:34;;;;;;;;;;;;;;;15.23;54.26;99077.25;5013748;28;6852;-78
2023/12/11 01:37:59;;;;;;;;;;;;;;;15.26;54.61;99077.28;5013046;28;6998;-80
2023/12/11 01:40:25;;;;;;;;;;;;;;;15.28;54.17;99081.59;5013480;28;6776;-82
2023/12/11 01:42:51;;;;;;;;;;;;;;;15.30;54.32;99078.13;4985786;28;6994;-80
2023/12/11 01:45:16;;;;;;;;;;;;;;;15.30;54.46;99076.44;4993411;28;6955;-77
2023/12/11 01:47:42;;;;;;;;;;;;;;;15.28;54.37;99078.16;5020654;28;7040;-77
2023/12/11 01:50:10;;;;;;;;;;;;;;;15.25;54.61;99075.53;5000525;28;6911;-77
2023/12/11 01:52:37;;;;;;;;;;;;;;;15.23;54.46;99064.34;5022191;28;6807;-79
2023/12/11 01:55:06;;;;;;;;;;;;;;;15.23;54.31;99069.50;5020151;28;8215;-81
2023/12/11 01:57:31;;;;;;;;;;;;;;;15.22;53.84;99072.94;4985926;28;6800;-75
2023/12/11 01:59:58;;;;;;;;;;;;;;;15.25;54.59;99065.19;4984329;28;6805;-83
2023/12/11 02:02:24;;;;;;;;;;;;;;;15.25;53.93;99078.09;5014436;28;6988;-76
2023/12/11 02:04:50;;;;;;;;;;;;;;;15.26;53.83;99069.53;4989243;28;7037;-78
2023/12/11 02:07:16;;;;;;;;;;;;;;;15.28;53.62;99060.09;5018743;28;6787;-79
2023/12/11 02:09:41;;;;;;;;;;;;;;;15.28;53.65;99048.03;5022804;28;6860;-80
2023/12/11 02:12:07;;;;;;;;;;;;;;;15.28;53.58;99060.09;5004557;28;6960;-82
2023/12/11 02:14:32;;;;;;;;;;;;;;;15.28;53.76;99055.78;4988699;28;7330;-77
2023/12/11 02:16:58;;;;;;;;;;;;;;;15.28;53.83;99048.03;4983231;28;6922;-81
2023/12/11 02:19:24;;;;;;;;;;;;;;;15.26;53.33;99038.56;5016777;28;6776;-76
2023/12/11 02:21:49;;;;;;;;;;;;;;;15.25;53.46;99027.38;5002025;28;7037;-81
2023/12/11 02:24:18;;;;;;;;;;;;;;;15.26;53.47;99036.00;5021183;28;7032;-81
2023/12/11 02:26:44;;;;;;;;;;;;;;;15.26;53.24;99023.09;5020159;28;6841;-77
2023/12/11 02:29:09;;;;;;;;;;;;;;;15.27;53.62;99022.22;5004776;28;6966;-82
2023/12/11 02:31:35;;;;;;;;;;;;;;;15.28;53.22;99011.03;5006411;28;6970;-81
2023/12/11 02:34:00;;;;;;;;;;;;;;;15.29;53.30;99012.78;5026353;28;6807;-83
2023/12/11 02:36:26;;;;;;;;;;;;;;;15.29;52.96;99017.94;4996349;28;6844;-75
2023/12/11 02:38:51;;;;;;;;;;;;;;;15.31;53.11;99016.22;4998088;28;7001;-78
2023/12/11 02:41:17;;;;;;;;;;;;;;;15.34;52.77;99011.06;5017501;28;6831;-75
2023/12/11 02:43:43;;;;;;;;;;;;;;;15.35;52.78;98986.13;5009798;28;6947;-75
2023/12/11 02:46:09;;;;;;;;;;;;;;;15.35;52.76;98981.81;5003104;28;7070;-75
2023/12/11 02:48:34;;;;;;;;;;;;;;;15.36;52.70;98982.69;5015132;28;7151;-75
2023/12/11 02:51:00;;;;;;;;;;;;;;;15.33;52.51;98983.53;4999607;28;8026;-75
2023/12/11 02:53:25;;;;;;;;;;;;;;;15.30;52.09;98982.63;5010669;28;7472;-75
2023/12/11 02:55:51;;;;;;;;;;;;;;;15.27;52.69;98980.94;4970676;28;7251;-75
2023/12/11 02:58:16;;;;;;;;;;;;;;;15.30;52.32;98975.78;5014954;28;6779;-75
2023/12/11 03:00:42;;;;;;;;;;;;;;;15.32;52.35;98961.16;5006180;28;8015;-75
2023/12/11 03:03:08;;;;;;;;;;;;;;;15.33;52.30;98962.88;4976681;28;6792;-75
2023/12/11 03:05:33;;;;;;;;;;;;;;;15.33;51.95;98957.72;5007514;28;6831;-75
2023/12/11 03:08:02;;;;;;;;;;;;;;;15.33;52.19;98944.81;5008474;28;6812;-75
2023/12/11 03:10:28;;;;;;;;;;;;;;;15.32;52.09;98932.75;5007367;28;7114;-75
2023/12/11 03:12:53;;;;;;;;;;;;;;;15.28;51.75;98925.88;5008094;28;7647;-75
2023/12/11 03:15:19;;;;;;;;;;;;;;;15.22;51.25;98918.09;5006591;28;7450;-75
2023/12/11 03:17:46;;;;;;;;;;;;;;;15.18;51.58;98922.34;4981125;28;7883;-75
2023/12/11 03:20:23;;;;;;;;;;;;;;;15.17;51.51;98914.63;4980389;28;7521;-75
2023/12/11 03:22:49;;;;;;;;;;;;;;;15.18;51.42;98921.50;5005315;28;6882;-75
2023/12/11 03:25:14;;;;;;;;;;;;;;;15.21;51.52;98918.94;4977666;28;7029;-75
2023/12/11 03:27:40;;;;;;;;;;;;;;;15.23;51.96;98909.47;5007208;28;6882;-75
2023/12/11 03:30:06;;;;;;;;;;;;;;;15.26;51.55;98919.84;4968058;28;7276;-75
2023/12/11 03:32:32;;;;;;;;;;;;;;;15.24;51.30;98918.94;4972403;28;7237;-75
2023/12/11 03:34:57;;;;;;;;;;;;;;;15.21;50.98;98916.38;4972709;28;7932;-76
2023/12/11 03:37:23;;;;;;;;;;;;;;;15.19;51.66;98913.75;4978779;28;6839;-76
2023/12/11 03:39:49;;;;;;;;;;;;;;;15.21;51.48;98906.03;5009610;28;6831;-75
2023/12/11 03:42:14;;;;;;;;;;;;;;;15.23;51.38;98896.56;5009162;28;6775;-75
2023/12/11 03:44:40;;;;;;;;;;;;;;;15.26;51.66;98887.13;4986340;28;7151;-75
2023/12/11 03:47:05;;;;;;;;;;;;;;;15.31;51.15;98901.81;4990062;28;7381;-75
2023/12/11 03:49:30;;;;;;;;;;;;;;;15.29;51.07;98894.03;5012296;28;7088;-75
2023/12/11 03:51:56;;;;;;;;;;;;;;;15.27;50.69;98896.59;4986753;28;7055;-74
2023/12/11 03:54:21;;;;;;;;;;;;;;;15.27;51.12;98894.03;5010764;28;6783;-75
2023/12/11 03:56:47;;;;;;;;;;;;;;;15.25;51.44;98871.63;4998801;28;7240;-73
2023/12/11 03:59:13;;;;;;;;;;;;;;;15.10;51.25;98881.03;4981485;28;6768;-75
2023/12/11 04:01:38;;;;;;;;;;;;;;;14.91;51.51;98892.13;5003462;28;6954;-73
2023/12/11 04:04:04;;;;;;;;;;;;;;;14.74;52.11;98889.44;4961819;28;6951;-75
2023/12/11 04:06:30;;;;;;;;;;;;;;;14.67;52.38;98898.78;4972129;28;6995;-73
2023/12/11 04:08:55;;;;;;;;;;;;;;;14.64;53.07;98884.19;4976890;28;6799;-73
2023/12/11 04:11:21;;;;;;;;;;;;;;;14.60;52.96;98884.16;4988534;28;6942;-73
2023/12/11 04:13:46;;;;;;;;;;;;;;;14.54;52.89;98898.69;5012460;28;6783;-74
2023/12/11 04:16:12;;;;;;;;;;;;;;;14.46;53.04;98874.56;4992743;28;7082;-74
2023/12/11 04:18:38;;;;;;;;;;;;;;;14.35;54.06;98860.75;4980059;28;7354;-75
2023/12/11 04:21:04;;;;;;;;;;;;;;;14.23;53.87;98877.84;4975903;28;6795;-74
2023/12/11 04:23:30;;;;;;;;;;;;;;;14.15;54.62;98882.94;4980356;28;6803;-74
2023/12/11 04:25:58;;;;;;;;;;;;;;;14.12;55.33;98879.47;4994897;28;8346;-74
2023/12/11 04:28:24;;;;;;;;;;;;;;;14.09;55.22;98884.56;4998179;28;6998;-75
2023/12/11 04:30:49;;;;;;;;;;;;;;;14.03;55.02;98896.56;5010973;28;7235;-74
2023/12/11 04:33:15;;;;;;;;;;;;;;;13.99;55.46;98892.19;5009618;28;6921;-74
2023/12/11 04:35:40;;;;;;;;;;;;;;;13.95;55.85;98897.31;5008088;28;6929;-74
2023/12/11 04:38:06;;;;;;;;;;;;;;;13.91;56.30;98898.13;5008830;28;6803;-75
2023/12/11 04:40:31;;;;;;;;;;;;;;;13.85;55.60;98892.06;4961349;28;6959;-74
2023/12/11 04:42:57;;;;;;;;;;;;;;;13.82;56.77;98886.03;5006247;28;6993;-75
2023/12/11 04:45:22;;;;;;;;;;;;;;;13.77;56.59;98883.41;5009112;28;6815;-73
2023/12/11 04:47:48;;;;;;;;;;;;;;;13.77;56.86;98887.69;4977029;28;6795;-74
2023/12/11 04:50:13;;;;;;;;;;;;;;;13.74;57.56;98919.41;5007437;28;6779;-73
2023/12/11 04:52:39;;;;;;;;;;;;;;;13.70;57.30;98903.06;5014349;28;6816;-74
2023/12/11 04:55:05;;;;;;;;;;;;;;;13.67;57.62;98921.06;4979403;28;6843;-73
2023/12/11 04:57:30;;;;;;;;;;;;;;;13.65;57.02;98925.31;4976257;28;6783;-74
2023/12/11 04:59:56;;;;;;;;;;;;;;;13.65;56.96;98935.63;4974464;28;6987;-73
2023/12/11 05:02:21;;;;;;;;;;;;;;;13.64;57.16;98928.75;5007770;28;6879;-78
2023/12/11 05:04:47;;;;;;;;;;;;;;;13.63;57.14;98923.56;4999835;28;6816;-79
2023/12/11 05:07:12;;;;;;;;;;;;;;;13.61;57.85;98915.81;4992364;28;7264;-79
2023/12/11 05:09:37;;;;;;;;;;;;;;;13.60;58.19;98906.38;5001934;28;6796;-79
2023/12/11 05:12:03;;;;;;;;;;;;;;;13.60;57.65;98907.25;5013210;28;6867;-77
2023/12/11 05:14:29;;;;;;;;;;;;;;;13.59;58.08;98908.09;5004297;28;7354;-78
2023/12/11 05:16:54;;;;;;;;;;;;;;;13.60;58.12;98898.66;5008445;28;6800;-79
2023/12/11 05:19:20;;;;;;;;;;;;;;;13.58;58.06;98888.34;5003392;28;7800;-80
2023/12/11 05:21:45;;;;;;;;;;;;;;;13.57;58.97;98924.38;4966871;28;6838;-78
2023/12/11 05:24:11;;;;;;;;;;;;;;;13.56;58.91;98922.66;5006002;28;6788;-80
2023/12/11 05:26:37;;;;;;;;;;;;;;;13.55;58.58;98913.19;4978873;28;7162;-80
2023/12/11 05:29:04;;;;;;;;;;;;;;;13.56;59.28;98920.06;5012669;28;6791;-81
2023/12/11 05:31:33;;;;;;;;;;;;;;;13.55;59.07;98900.31;5003999;28;7997;-78
2023/12/11 05:33:59;;;;;;;;;;;;;;;13.59;59.66;98917.53;5011702;28;7208;-81
2023/12/11 05:36:24;;;;;;;;;;;;;;;13.60;59.25;98914.09;5015112;28;8065;-78
2023/12/11 05:38:50;;;;;;;;;;;;;;;13.63;59.41;98910.69;5009955;28;6787;-79
2023/12/11 05:41:15;;;;;;;;;;;;;;;13.65;59.50;98897.00;4997819;28;6958;-81
2023/12/11 05:43:41;;;;;;;;;;;;;;;13.68;59.08;98898.75;5004966;28;6872;-81
2023/12/11 05:46:07;;;;;;;;;;;;;;;13.69;59.06;98885.88;5016011;28;6780;-78
2023/12/11 05:48:33;;;;;;;;;;;;;;;13.70;58.58;98892.75;4983892;28;6892;-81
2023/12/11 05:50:58;;;;;;;;;;;;;;;13.70;59.62;98892.75;5005018;28;7648;-79
2023/12/11 05:53:23;;;;;;;;;;;;;;;13.69;59.17;98885.88;5009038;28;6844;-81
2023/12/11 05:55:49;;;;;;;;;;;;;;;13.68;58.94;98897.03;5011280;28;7252;-80
2023/12/11 05:58:14;;;;;;;;;;;;;;;13.69;59.67;98901.34;5008306;28;7153;-82
2023/12/11 06:00:40;;;;;;;;;;;;;;;13.72;59.42;98896.25;5007675;28;7750;-78
2023/12/11 06:03:05;;;;;;;;;;;;;;;13.75;59.05;98896.25;5007027;28;6903;-81
2023/12/11 06:05:31;;;;;;;;;;;;;;;13.77;58.46;98897.97;4998626;28;7073;-79
2023/12/11 06:07:56;;;;;;;;;;;;;;;13.77;59.28;98903.13;4992269;28;7906;-80
2023/12/11 06:10:22;;;;;;;;;;;;;;;13.77;58.90;98877.38;5009878;28;6788;-81
2023/12/11 06:12:47;;;;;;;;;;;;;;;13.78;58.79;98868.81;5009726;28;6787;-77
2023/12/11 06:15:13;;;;;;;;;;;;;;;13.77;58.69;98874.81;4979493;28;7253;-76
2023/12/11 06:17:38;;;;;;;;;;;;;;;13.78;58.64;98871.38;4994882;28;8209;-76
2023/12/11 06:20:05;;;;;;;;;;;;;;;13.80;59.04;98864.53;4975154;28;6792;-76
2023/12/11 06:22:30;;;;;;;;;;;;;;;13.80;58.77;98860.25;4999302;28;7023;-76
2023/12/11 06:24:56;;;;;;;;;;;;;;;13.86;58.54;98875.78;5006426;28;6792;-76
2023/12/11 06:27:24;;;;;;;;;;;;;;;13.94;58.37;98893.00;5013494;28;7306;-76
2023/12/11 06:29:50;;;;;;;;;;;;;;;13.99;58.01;98888.78;5010510;28;7009;-76
2023/12/11 06:32:15;;;;;;;;;;;;;;;14.04;57.61;98897.41;4983568;28;7247;-76
2023/12/11 06:34:41;;;;;;;;;;;;;;;14.09;58.20;98889.72;5007404;28;6779;-76
2023/12/11 06:37:06;;;;;;;;;;;;;;;14.12;57.54;98894.91;4691805;23;7909;-76
2023/12/11 06:39:32;;;;;;;;;;;;;;;14.16;57.93;98904.38;4964902;28;6958;-76
2023/12/11 06:41:57;;;;;;;;;;;;;;;14.19;57.38;98906.97;5000668;28;8548;-76
2023/12/11 06:44:23;;;;;;;;;;;;;;;14.22;57.40;98907.03;4982616;28;6853;-76
2023/12/11 06:46:48;;;;;;;;;;;;;;;14.25;57.53;98914.78;5017976;28;7201;-76
2023/12/11 06:49:14;;;;;;;;;;;;;;;14.27;57.20;98922.53;4991945;28;8166;-76
2023/12/11 06:51:39;;;;;;;;;;;;;;;14.32;57.81;98917.44;5016319;28;6794;-76
2023/12/11 06:54:05;;;;;;;;;;;;;;;14.32;56.89;98917.44;4980830;28;8001;-76
2023/12/11 06:56:33;;;;;;;;;;;;;;;14.35;56.90;98907.13;4978199;28;6803;-76
2023/12/11 06:59:00;;;;;;;;;;;;;;;14.35;57.28;98900.28;4964343;28;7134;-76
2023/12/11 07:01:28;;;;;;;;;;;;;;;14.38;57.33;98918.34;5013543;28;7172;-76
2023/12/11 07:03:53;;;;;;;;;;;;;;;14.39;56.64;98904.59;4976249;28;7827;-76
2023/12/11 07:06:19;;;;;;;;;;;;;;;14.41;56.83;98896.88;5002205;28;6970;-76
2023/12/11 07:08:44;;;;;;;;;;;;;;;14.42;57.05;98911.50;4981893;28;6799;-77
2023/12/11 07:11:10;;;;;;;;;;;;;;;14.46;56.30;98896.94;5018343;28;6856;-76
2023/12/11 07:13:35;;;;;;;;;;;;;;;14.46;56.13;98897.78;4987711;28;7829;-76
2023/12/11 07:16:01;;;;;;;;;;;;;;;14.48;56.78;98905.53;4983214;28;6938;-76
2023/12/11 07:18:26;;;;;;;;;;;;;;;14.50;55.88;98903.81;5017898;28;6960;-76
2023/12/11 07:20:52;;;;;;;;;;;;;;;14.52;56.11;98904.69;4983044;28;7107;-76
2023/12/11 07:23:17;;;;;;;;;;;;;;;14.51;56.14;98885.78;5000541;28;6961;-74
2023/12/11 07:25:43;;;;;;;;;;;;;;;14.53;56.38;98912.44;5016432;28;7179;-77
2023/12/11 07:28:10;;;;;;;;;;;;;;;14.55;55.83;98920.19;4982112;28;7421;-76
2023/12/11 07:30:35;;;;;;;;;;;;;;;14.57;55.88;98909.03;5011829;28;7654;-75
2023/12/11 07:33:01;;;;;;;;;;;;;;;14.58;56.18;98915.94;4986499;28;7908;-75
2023/12/11 07:35:26;;;;;;;;;;;;;;;14.59;55.93;98909.03;5001258;28;6963;-75
2023/12/11 07:37:51;;;;;;;;;;;;;;;14.60;56.06;98922.81;5004632;28;6784;-75
2023/12/11 07:40:17;;;;;;;;;;;;;;;14.60;55.23;98899.63;4964357;28;6965;-74
2023/12/11 07:42:43;;;;;;;;;;;;;;;14.61;55.91;98915.06;4997403;28;7288;-75
2023/12/11 07:45:09;;;;;;;;;;;;;;;14.64;55.84;98927.13;4999677;28;6891;-74
2023/12/11 07:47:35;;;;;;;;;;;;;;;14.65;55.42;98922.00;4963737;28;7225;-76
2023/12/11 07:50:01;;;;;;;;;;;;;;;14.68;55.47;98927.16;4989502;28;8069;-76
2023/12/11 07:52:30;;;;;;;;;;;;;;;14.70;55.27;98927.19;4990048;28;7016;-74
2023/12/11 07:54:56;;;;;;;;;;;;;;;14.72;54.70;98938.38;4997298;28;6935;-75
2023/12/11 07:57:26;;;;;;;;;;;;;;;14.73;54.94;98932.41;4999449;28;6803;-75
2023/12/11 07:59:52;;;;;;;;;;;;;;;14.75;54.83;98933.25;4998565;28;6976;-75
2023/12/11 08:02:18;;;;;;;;;;;;;;;14.77;54.82;98946.19;4974979;28;7877;-76
2023/12/11 08:04:43;;;;;;;;;;;;;;;14.80;55.06;98928.13;4976853;28;7640;-75
2023/12/11 08:07:09;;;;;;;;;;;;;;;14.82;54.38;98937.63;4993408;28;6945;-74
2023/12/11 08:09:39;;;;;;;;;;;;;;;14.82;54.56;98945.34;4999772;28;7177;-74
2023/12/11 08:12:05;;;;;;;;;;;;;;;14.85;54.47;98950.53;4987472;28;7072;-75
2023/12/11 08:14:30;;;;;;;;;;;;;;;14.86;54.30;98921.31;4965926;28;8714;-75
2023/12/11 08:16:56;;;;;;;;;;;;;;;14.90;54.28;98954.88;4977793;28;7025;-74
2023/12/11 08:19:21;;;;;;;;;;;;;;;14.92;54.63;98945.44;4966680;28;6776;-75
2023/12/11 08:21:48;;;;;;;;;;;;;;;14.94;54.34;98957.50;4979389;28;6950;-75
2023/12/11 08:24:13;;;;;;;;;;;;;;;14.94;54.65;98957.50;4949352;28;6956;-75
2023/12/11 08:26:39;;;;;;;;;;;;;;;14.96;54.22;98966.09;4979107;28;8734;-74
2023/12/11 08:29:04;;;;;;;;;;;;;;;14.98;54.47;98950.63;4964259;28;6969;-74
2023/12/11 08:31:30;;;;;;;;;;;;;;;14.99;54.06;98960.94;4968181;28;7416;-77
2023/12/11 08:33:56;;;;;;;;;;;;;;;15.03;54.44;98981.63;4999175;28;7846;-77
2023/12/11 08:36:22;;;;;;;;;;;;;;;15.05;54.14;98988.50;5020549;28;7125;-77
2023/12/11 08:38:47;;;;;;;;;;;;;;;15.08;54.03;98967.91;5019788;28;7122;-76
2023/12/11 08:43:46;;;;;;;;;;;;;;;15.11;53.97;98985.09;4970760;23;6929;-81
2023/12/11 08:46:12;;;;;;;;;;;;;;;15.14;53.76;98995.47;4926156;28;8580;-84
2023/12/11 08:48:38;;;;;;;;;;;;;;;15.14;53.32;99006.63;4965312;28;6784;-88
2023/12/11 08:51:04;;;;;;;;;;;;;;;15.17;53.56;99007.53;4971797;28;7046;-85
2023/12/11 08:53:29;;;;;;;;;;;;;;;15.16;53.34;99006.66;4975582;28;6804;-85
2023/12/11 08:55:55;;;;;;;;;;;;;;;15.15;53.77;99010.09;4945663;28;8785;-85
2023/12/11 08:58:20;;;;;;;;;;;;;;;15.15;53.76;99010.09;4952178;28;6979;-85
2023/12/11 09:00:46;;;;;;;;;;;;;;;15.17;53.19;99010.13;4978285;28;8423;-85
2023/12/11 09:03:12;;;;;;;;;;;;;;;15.18;53.74;99009.25;4976303;28;8522;-84
2023/12/11 09:05:37;;;;;;;;;;;;;;;15.17;53.70;98998.06;4956750;28;7015;-85
2023/12/11 09:08:03;;;;;;;;;;;;;;;15.20;53.08;98998.06;4950418;28;7189;-85
2023/12/11 09:10:29;;;;;;;;;;;;;;;15.22;53.12;99017.03;4941054;28;7615;-85
2023/12/11 09:12:54;;;;;;;;;;;;;;;15.26;53.43;99025.66;4947421;28;8647;-84
2023/12/11 09:15:20;;;;;;;;;;;;;;;15.28;53.10;99029.13;4968416;28;6872;-86
2023/12/11 09:17:46;;;;;;;;;;;;;;;15.30;53.71;99037.72;4956923;28;6796;-85
2023/12/11 09:20:11;;;;;;;;;;;;;;;15.31;53.45;99064.41;4955813;28;8429;-85
2023/12/11 09:22:39;;;;;;;;;;;;;;;15.28;53.21;99060.94;4933585;28;6966;-84
2023/12/11 09:25:05;;;;;;;;;;;;;;;15.25;53.47;99063.50;4952556;28;8544;-85
2023/12/11 09:27:31;;;;;;;;;;;;;;;15.23;53.04;99079.81;4957971;28;8661;-85
2023/12/11 09:29:56;;;;;;;;;;;;;;;15.21;53.46;99086.69;4958551;28;8448;-85
2023/12/11 09:32:22;;;;;;;;;;;;;;;15.17;53.59;99090.13;4956581;28;8513;-85
2023/12/11 09:34:48;;;;;;;;;;;;;;;15.14;53.25;99094.38;4951717;28;8489;-83
2023/12/11 09:37:15;;;;;;;;;;;;;;;15.12;53.95;99095.22;4971636;28;8441;-85
2023/12/11 09:39:41;;;;;;;;;;;;;;;15.13;53.34;99109.88;4968950;28;6990;-85
2023/12/11 09:42:07;;;;;;;;;;;;;;;15.13;53.60;99099.53;4965429;28;6863;-85
2023/12/11 09:44:34;;;;;;;;;;;;;;;15.17;53.50;99110.75;4956745;28;7251;-86
2023/12/11 09:47:17;;;;;;;;;;;;;;;15.18;53.57;99118.50;4962948;28;7176;-85
2023/12/11 09:49:45;;;;;;;;;;;;;;;15.22;53.95;99121.97;4971303;28;8851;-85
2023/12/11 09:52:10;;;;;;;;;;;;;;;15.23;53.34;99111.66;4932282;28;7007;-82
2023/12/11 09:54:36;;;;;;;;;;;;;;;15.14;52.77;99122.75;4956161;28;7037;-82
2023/12/11 09:57:02;;;;;;;;;;;;;;;15.06;53.56;99129.56;4963834;28;6792;-82
2023/12/11 09:59:29;;;;;;;;;;;;;;;14.98;53.71;99144.13;4937005;28;6909;-82
2023/12/11 10:01:55;;;;;;;;;;;;;;;14.94;53.75;99150.09;4951614;28;6835;-82
2023/12/11 10:04:20;;;;;;;;;;;;;;;14.92;53.89;99152.69;4947336;28;7103;-83
2023/12/11 10:06:46;;;;;;;;;;;;;;;14.93;53.51;99163.84;4948401;28;8292;-82
2023/12/11 10:09:35;;;;;;;;;;;;;;;14.96;54.39;99161.28;4973308;28;6944;-82
2023/12/11 10:12:03;;;;;;;;;;;;;;;15.00;54.37;99157.91;4952080;28;7208;-83
2023/12/11 10:14:30;;;;;;;;;;;;;;;15.04;53.95;99167.38;4971528;28;8550;-83
2023/12/11 10:16:56;;;;;;;;;;;;;;;15.07;53.84;99162.28;4958476;28;7155;-82
2023/12/11 10:19:32;;;;;;;;;;;;;;;15.01;54.06;99169.94;4952302;28;8752;-82
2023/12/11 10:21:58;;;;;;;;;;;;;;;14.91;54.31;99165.56;4972206;28;7309;-83
2023/12/11 10:24:23;;;;;;;;;;;;;;;14.81;53.97;99180.03;4970958;28;7161;-82
2023/12/11 10:26:55;;;;;;;;;;;;;;;14.66;54.00;99181.59;4948848;28;8461;-82
2023/12/11 10:29:26;;;;;;;;;;;;;;;14.53;54.64;99190.88;4956125;28;8793;-82
2023/12/11 10:31:53;;;;;;;;;;;;;;;14.44;55.06;99196.78;4977057;28;6864;-82
2023/12/11 10:34:45;;;;;;;;;;;;;;;14.40;55.93;99184.69;4979178;28;7345;-82
2023/12/11 10:37:17;;;;;;;;;;;;;;;14.34;55.49;99192.38;4940474;28;8535;-82
2023/12/11 10:39:56;;;;;;;;;;;;;;;14.29;55.78;99194.00;4933635;28;8750;-82
2023/12/11 10:42:22;;;;;;;;;;;;;;;14.25;55.89;99195.66;4978946;28;8672;-82
2023/12/11 10:44:48;;;;;;;;;;;;;;;14.24;56.28;99199.09;4977994;28;6808;-81
2023/12/11 10:47:15;;;;;;;;;;;;;;;14.25;56.30;99187.94;4971048;28;8590;-81
2023/12/11 10:49:40;;;;;;;;;;;;;;;14.26;56.98;99181.09;4939113;28;8846;-82
2023/12/11 10:52:06;;;;;;;;;;;;;;;14.29;56.69;99194.00;4978043;28;7137;-82
2023/12/11 10:54:35;;;;;;;;;;;;;;;14.30;56.49;99186.31;4936018;28;8723;-82
2023/12/11 10:57:04;;;;;;;;;;;;;;;14.34;57.05;99199.22;4964533;28;8474;-82
2023/12/11 10:59:31;;;;;;;;;;;;;;;14.39;56.73;99194.97;4970099;28;7432;-82
2023/12/11 11:01:58;;;;;;;;;;;;;;;14.43;56.98;99195.03;4956515;28;6796;-85
2023/12/11 11:04:26;;;;;;;;;;;;;;;14.45;56.60;99213.09;4972034;28;8476;-86
2023/12/11 11:07:04;;;;;;;;;;;;;;;14.48;57.09;99210.56;4991397;28;6792;-85
2023/12/11 11:10:10;;;;;;;;;;;;;;;14.48;57.04;99197.66;4990082;28;8744;-86
2023/12/11 11:12:54;;;;;;;;;;;;;;;14.48;56.90;99210.56;4960443;28;7289;-85
2023/12/11 11:15:24;;;;;;;;;;;;;;;14.50;56.87;99211.47;4974779;28;7166;-85
2023/12/11 11:18:06;;;;;;;;;;;;;;;14.52;57.53;99214.06;4961405;28;7108;-85
2023/12/11 11:20:33;;;;;;;;;;;;;;;14.53;56.85;99206.34;4964162;28;8481;-86
2023/12/11 11:23:19;;;;;;;;;;;;;;;14.57;57.06;99202.94;4972063;28;6866;-85
2023/12/11 11:25:50;;;;;;;;;;;;;;;14.61;57.19;99221.06;4981083;28;8745;-84
2023/12/11 11:28:37;;;;;;;;;;;;;;;14.67;56.87;99218.53;4990508;28;8757;-84
2023/12/11 11:31:03;;;;;;;;;;;;;;;14.73;57.17;99223.81;4998192;28;7241;-85
2023/12/11 11:33:49;;;;;;;;;;;;;;;14.78;56.95;99226.44;4953017;28;8903;-85
2023/12/11 11:36:17;;;;;;;;;;;;;;;14.79;56.46;99223.91;4989674;28;8536;-85
2023/12/11 11:38:55;;;;;;;;;;;;;;;14.82;57.02;99225.63;4998657;28;7317;-86
2023/12/11 11:41:30;;;;;;;;;;;;;;;14.87;56.95;99231.72;4999329;28;8624;-86
2023/12/11 11:44:01;;;;;;;;;;;;;;;14.90;56.53;99239.47;4951341;28;8469;-86
2023/12/11 11:46:27;;;;;;;;;;;;;;;14.94;56.89;99230.06;4949574;28;8421;-84
2023/12/11 11:48:53;;;;;;;;;;;;;;;15.00;56.75;99227.56;4991117;28;8956;-86
2023/12/11 11:51:22;;;;;;;;;;;;;;;15.09;57.04;99217.34;4953511;28;8645;-86
2023/12/11 11:53:55;;;;;;;;;;;;;;;15.14;56.46;99230.28;5001906;28;7143;-84
2023/12/11 11:56:20;;;;;;;;;;;;;;;15.20;56.55;99235.50;4970621;28;7449;-86
2023/12/11 11:58:46;;;;;;;;;;;;;;;15.29;56.99;99232.16;4990347;28;6950;-85
2023/12/11 12:01:11;;;;;;;;;;;;;;;15.37;56.27;99240.84;4966162;28;6868;-86
2023/12/11 12:03:43;;;;;;;;;;;;;;;15.44;56.05;99243.47;4961185;28;6965;-87
2023/12/11 12:06:09;;;;;;;;;;;;;;;15.48;56.45;99247.84;4963738;28;6968;-86
2023/12/11 12:08:36;;;;;;;;;;;;;;;15.51;55.50;99247.84;4994545;28;8449;-85
2023/12/11 12:11:07;;;;;;;;;;;;;;;15.41;55.72;99258.09;4988166;28;7161;-85
2023/12/11 12:13:33;;;;;;;;;;;;;;;15.27;55.27;99247.63;4999315;28;8487;-84
2023/12/11 12:16:00;;;;;;;;;;;;;;;15.10;55.78;99238.84;4998081;28;6807;-84
2023/12/11 12:18:26;;;;;;;;;;;;;;;14.96;55.64;99272.22;4986057;28;7145;-83
2023/12/11 12:21:04;;;;;;;;;;;;;;;14.80;55.83;99277.22;4964755;28;7124;-83
2023/12/11 12:23:30;;;;;;;;;;;;;;;14.67;56.32;99286.47;4977304;28;8705;-86
2023/12/11 12:25:59;;;;;;;;;;;;;;;14.55;56.42;99297.47;4971374;28;7038;-88
2023/12/11 12:28:25;;;;;;;;;;;;;;;14.41;55.80;99294.69;4979773;28;8899;-88
2023/12/11 12:30:50;;;;;;;;;;;;;;;14.25;56.96;99297.91;4977772;28;7247;-84
2023/12/11 12:33:22;;;;;;;;;;;;;;;14.09;56.68;99301.91;4967211;28;6986;-84
2023/12/11 12:35:48;;;;;;;;;;;;;;;13.94;57.00;99297.38;4983060;28;8546;-84
2023/12/11 12:38:15;;;;;;;;;;;;;;;13.82;57.22;99292.91;4979391;28;7013;-86
2023/12/11 12:40:41;;;;;;;;;;;;;;;13.74;58.12;99290.19;4951524;28;8414;-83
2023/12/11 12:43:11;;;;;;;;;;;;;;;13.70;58.74;99309.03;4984058;28;8816;-85
2023/12/11 12:45:36;;;;;;;;;;;;;;;13.66;58.56;99312.34;4972569;28;6909;-85
2023/12/11 12:48:04;;;;;;;;;;;;;;;13.60;58.93;99315.69;4945484;28;6830;-85
2023/12/11 12:50:30;;;;;;;;;;;;;;;13.54;58.75;99325.91;4953816;28;7190;-86
2023/12/11 12:53:10;;;;;;;;;;;;;;;13.50;58.23;99316.38;4984879;28;6930;-85
2023/12/11 12:55:36;;;;;;;;;;;;;;;13.44;58.85;99323.16;4954010;28;8644;-82
2023/12/11 12:58:06;;;;;;;;;;;;;;;13.42;59.48;99335.09;4964619;28;7739;-85